Time;durP1;ratioP1;P1;durP2;ratioP2;P2;SDS_P1;SDS_P2;PMS_P1;PMS_P2;Temp;Humidity;BMP_temperature;BMP_pressure;BME280_temperature;BME280_humidity;BME280_pressure;Samples;Min_cycle;Max_cycle;Signal;HPM_P1;HPM_P2
2022/09/28 00:00:37;;;;;;;0.00;0.00;;;;;;;;;;1733387;28;20250;-68
2022/09/28 00:01:29;;;;;;;0.00;0.00;;;;;;;;;;1738931;28;20210;-69
2022/09/28 00:02:20;;;;;;;0.00;0.00;;;;;;;;;;1738454;28;20678;-69
2022/09/28 00:03:12;;;;;;;0.00;0.00;;;;;;;;;;1740449;28;20203;-69
2022/09/28 00:04:05;;;;;;;0.00;0.00;;;;;;;;;;1737977;28;20272;-69
2022/09/28 00:04:57;;;;;;;0.00;0.00;;;;;;;;;;1740311;28;20481;-69
2022/09/28 00:05:48;;;;;;;0.00;0.00;;;;;;;;;;1738770;28;20206;-69
2022/09/28 00:06:41;;;;;;;0.00;0.00;;;;;;;;;;1740497;28;20195;-69
2022/09/28 00:07:32;;;;;;;0.00;0.00;;;;;;;;;;1734326;28;20413;-69
2022/09/28 00:08:23;;;;;;;0.00;0.00;;;;;;;;;;1733221;28;20538;-69
2022/09/28 00:09:15;;;;;;;0.00;0.00;;;;;;;;;;1731891;28;20724;-69
2022/09/28 00:10:07;;;;;;;0.00;0.00;;;;;;;;;;1733366;28;20638;-69
2022/09/28 00:11:00;;;;;;;0.00;0.00;;;;;;;;;;1732467;28;20208;-68
2022/09/28 00:11:52;;;;;;;0.00;0.00;;;;;;;;;;1732966;28;20215;-68
2022/09/28 00:12:44;;;;;;;0.00;0.00;;;;;;;;;;1732707;28;20271;-68
2022/09/28 00:13:35;;;;;;;0.00;0.00;;;;;;;;;;1732777;28;20508;-68
2022/09/28 00:14:27;;;;;;;0.00;0.00;;;;;;;;;;1732776;28;20688;-68
2022/09/28 00:15:18;;;;;;;0.00;0.00;;;;;;;;;;1732944;28;20216;-68
2022/09/28 00:16:12;;;;;;;0.00;0.00;;;;;;;;;;1733514;28;20213;-68
2022/09/28 00:17:03;;;;;;;0.00;0.00;;;;;;;;;;1733285;28;20560;-68
2022/09/28 00:17:56;;;;;;;0.00;0.00;;;;;;;;;;1733625;28;20588;-68
2022/09/28 00:18:49;;;;;;;0.00;0.00;;;;;;;;;;1733376;28;20721;-68
2022/09/28 00:19:41;;;;;;;0.00;0.00;;;;;;;;;;1732557;28;20688;-69
2022/09/28 00:20:32;;;;;;;0.00;0.00;;;;;;;;;;1732644;28;20219;-68
2022/09/28 00:21:24;;;;;;;0.00;0.00;;;;;;;;;;1732868;28;20199;-69
2022/09/28 00:22:16;;;;;;;0.00;0.00;;;;;;;;;;1732522;28;20287;-69
2022/09/28 00:23:07;;;;;;;0.00;0.00;;;;;;;;;;1733008;28;20265;-69
2022/09/28 00:24:11;;;;;;;0.00;0.00;;;;;;;;;;1732522;28;20254;-69
2022/09/28 00:25:07;;;;;;;0.00;0.00;;;;;;;;;;1726576;28;20185;-69
2022/09/28 00:26:02;;;;;;;0.00;0.00;;;;;;;;;;1731394;28;20287;-69
2022/09/28 00:26:55;;;;;;;0.00;0.00;;;;;;;;;;1732966;28;20379;-69
2022/09/28 00:27:49;;;;;;;0.00;0.00;;;;;;;;;;1732382;28;20208;-69
2022/09/28 00:28:41;;;;;;;0.00;0.00;;;;;;;;;;1732653;28;20207;-69
2022/09/28 00:29:33;;;;;;;0.00;0.00;;;;;;;;;;1732476;28;20495;-69
2022/09/28 00:30:25;;;;;;;0.00;0.00;;;;;;;;;;1732917;28;20440;-69
2022/09/28 00:31:16;;;;;;;0.00;0.00;;;;;;;;;;1732545;28;20211;-69
2022/09/28 00:32:10;;;;;;;0.00;0.00;;;;;;;;;;1732396;28;20207;-69
2022/09/28 00:33:02;;;;;;;0.00;0.00;;;;;;;;;;1732890;28;20519;-69
2022/09/28 00:33:55;;;;;;;0.00;0.00;;;;;;;;;;1732363;28;20553;-69
2022/09/28 00:34:48;;;;;;;0.00;0.00;;;;;;;;;;1732884;28;20216;-69
2022/09/28 00:35:39;;;;;;;0.00;0.00;;;;;;;;;;1732861;28;20669;-69
2022/09/28 00:36:30;;;;;;;0.00;0.00;;;;;;;;;;1732431;28;20204;-68
2022/09/28 00:37:22;;;;;;;0.00;0.00;;;;;;;;;;1735360;28;20259;-68
2022/09/28 00:38:15;;;;;;;0.00;0.00;;;;;;;;;;1739596;28;20514;-68
2022/09/28 00:39:07;;;;;;;0.00;0.00;;;;;;;;;;1738090;28;20539;-68
2022/09/28 00:39:59;;;;;;;0.00;0.00;;;;;;;;;;1739356;28;20482;-68
2022/09/28 00:40:50;;;;;;;0.00;0.00;;;;;;;;;;1739553;28;20213;-68
2022/09/28 00:41:43;;;;;;;0.00;0.00;;;;;;;;;;1739545;28;20250;-69
2022/09/28 00:42:35;;;;;;;0.00;0.00;;;;;;;;;;1737824;28;20283;-69
2022/09/28 00:43:26;;;;;;;0.00;0.00;;;;;;;;;;1740350;28;20628;-69
2022/09/28 00:44:31;;;;;;;0.00;0.00;;;;;;;;;;1739640;28;20231;-69
2022/09/28 00:45:25;;;;;;;0.00;0.00;;;;;;;;;;1739494;28;20203;-69
2022/09/28 00:46:18;;;;;;;0.00;0.00;;;;;;;;;;1736465;28;20236;-69
2022/09/28 00:47:16;;;;;;;0.00;0.00;;;;;;;;;;1738350;28;20685;-69
2022/09/28 00:48:08;;;;;;;0.00;0.00;;;;;;;;;;1739844;28;20313;-69
2022/09/28 00:49:02;;;;;;;0.00;0.00;;;;;;;;;;1739070;28;20206;-69
2022/09/28 00:49:56;;;;;;;0.00;0.00;;;;;;;;;;1739415;28;20582;-69
2022/09/28 00:50:47;;;;;;;0.00;0.00;;;;;;;;;;1738142;28;20374;-69
2022/09/28 00:51:41;;;;;;;0.00;0.00;;;;;;;;;;1739846;28;20271;-69
2022/09/28 00:52:34;;;;;;;0.00;0.00;;;;;;;;;;1738838;28;20586;-69
2022/09/28 00:53:27;;;;;;;0.00;0.00;;;;;;;;;;1739801;28;20195;-69
2022/09/28 00:54:18;;;;;;;0.00;0.00;;;;;;;;;;1738589;28;20692;-69
2022/09/28 00:55:12;;;;;;;0.00;0.00;;;;;;;;;;1739187;28;20207;-69
2022/09/28 00:56:06;;;;;;;0.00;0.00;;;;;;;;;;1738651;28;20548;-69
2022/09/28 00:57:00;;;;;;;0.00;0.00;;;;;;;;;;1738694;28;20207;-69
2022/09/28 00:57:54;;;;;;;0.00;0.00;;;;;;;;;;1739252;28;20238;-69
2022/09/28 00:58:47;;;;;;;0.00;0.00;;;;;;;;;;1737974;28;20210;-69
2022/09/28 00:59:38;;;;;;;0.00;0.00;;;;;;;;;;1736080;28;20623;-69
2022/09/28 01:00:30;;;;;;;0.00;0.00;;;;;;;;;;1739343;28;20217;-69
2022/09/28 01:01:21;;;;;;;0.00;0.00;;;;;;;;;;1739421;28;20729;-68
2022/09/28 01:02:13;;;;;;;0.00;0.00;;;;;;;;;;1738022;28;20210;-68
2022/09/28 01:03:04;;;;;;;0.00;0.00;;;;;;;;;;1739185;28;20349;-68
2022/09/28 01:03:56;;;;;;;0.00;0.00;;;;;;;;;;1738226;28;20203;-68
2022/09/28 01:04:48;;;;;;;0.00;0.00;;;;;;;;;;1739658;28;20203;-68
2022/09/28 01:05:40;;;;;;;0.00;0.00;;;;;;;;;;1739316;28;20256;-68
2022/09/28 01:06:32;;;;;;;0.00;0.00;;;;;;;;;;1739592;28;20230;-68
2022/09/28 01:07:24;;;;;;;0.00;0.00;;;;;;;;;;1738155;28;20195;-68
2022/09/28 01:08:16;;;;;;;0.00;0.00;;;;;;;;;;1739643;28;20260;-68
2022/09/28 01:09:08;;;;;;;0.00;0.00;;;;;;;;;;1737712;28;20206;-68
2022/09/28 01:10:00;;;;;;;0.00;0.00;;;;;;;;;;1739525;28;20215;-68
2022/09/28 01:10:51;;;;;;;0.00;0.00;;;;;;;;;;1739460;28;20267;-68
2022/09/28 01:11:43;;;;;;;0.00;0.00;;;;;;;;;;1739477;28;20210;-69
2022/09/28 01:12:35;;;;;;;0.00;0.00;;;;;;;;;;1738433;28;20248;-69
2022/09/28 01:13:28;;;;;;;0.00;0.00;;;;;;;;;;1739403;28;20203;-69
2022/09/28 01:14:21;;;;;;;0.00;0.00;;;;;;;;;;1738083;28;20203;-69
2022/09/28 01:15:14;;;;;;;0.00;0.00;;;;;;;;;;1739929;28;20208;-69
2022/09/28 01:16:11;;;;;;;0.00;0.00;;;;;;;;;;1738727;28;20211;-68
2022/09/28 01:17:07;;;;;;;0.00;0.00;;;;;;;;;;1738580;28;20560;-68
2022/09/28 01:18:04;;;;;;;0.00;0.00;;;;;;;;;;1739327;28;20203;-68
2022/09/28 01:18:58;;;;;;;0.00;0.00;;;;;;;;;;1738533;28;20202;-68
2022/09/28 01:20:07;;;;;;;0.00;0.00;;;;;;;;;;1739578;28;20268;-68
2022/09/28 01:21:01;;;;;;;0.00;0.00;;;;;;;;;;1731963;28;20647;-68
2022/09/28 01:21:55;;;;;;;0.00;0.00;;;;;;;;;;1739962;28;20648;-68
2022/09/28 01:23:00;;;;;;;0.00;0.00;;;;;;;;;;1739686;28;20223;-68
2022/09/28 01:24:15;;;;;;;0.00;0.00;;;;;;;;;;1738328;28;20195;-68
2022/09/28 01:25:07;;;;;;;0.00;0.00;;;;;;;;;;1732788;28;20192;-68
2022/09/28 01:26:11;;;;;;;0.00;0.00;;;;;;;;;;1736359;28;20245;-69
2022/09/28 01:27:06;;;;;;;0.00;0.00;;;;;;;;;;1738454;28;20575;-69
2022/09/28 01:28:00;;;;;;;0.00;0.00;;;;;;;;;;1739164;28;20245;-69
2022/09/28 01:28:54;;;;;;;0.00;0.00;;;;;;;;;;1738348;28;20272;-69
2022/09/28 01:29:55;;;;;;;0.00;0.00;;;;;;;;;;1739136;28;20213;-69
2022/09/28 01:30:48;;;;;;;0.00;0.00;;;;;;;;;;1738179;28;20272;-69
2022/09/28 01:31:41;;;;;;;0.00;0.00;;;;;;;;;;1739474;28;20364;-68
2022/09/28 01:32:36;;;;;;;0.00;0.00;;;;;;;;;;1737902;28;20210;-68
2022/09/28 01:33:32;;;;;;;0.00;0.00;;;;;;;;;;1739509;28;20234;-68
2022/09/28 01:34:26;;;;;;;0.00;0.00;;;;;;;;;;1737059;28;20206;-68
2022/09/28 01:35:21;;;;;;;0.00;0.00;;;;;;;;;;1738767;28;20199;-68
2022/09/28 01:36:14;;;;;;;0.00;0.00;;;;;;;;;;1738474;28;20242;-69
2022/09/28 01:37:09;;;;;;;0.00;0.00;;;;;;;;;;1736968;28;20628;-69
2022/09/28 01:38:02;;;;;;;0.00;0.00;;;;;;;;;;1736346;28;20210;-69
2022/09/28 01:38:56;;;;;;;0.00;0.00;;;;;;;;;;1735860;28;20208;-69
2022/09/28 01:39:48;;;;;;;0.00;0.00;;;;;;;;;;1737024;28;20574;-69
2022/09/28 01:40:41;;;;;;;0.00;0.00;;;;;;;;;;1735359;28;20283;-69
2022/09/28 01:41:35;;;;;;;0.00;0.00;;;;;;;;;;1737711;28;20195;-69
2022/09/28 01:42:30;;;;;;;0.00;0.00;;;;;;;;;;1734132;28;20208;-69
2022/09/28 01:43:23;;;;;;;0.00;0.00;;;;;;;;;;1739108;28;20309;-69
2022/09/28 01:44:18;;;;;;;0.00;0.00;;;;;;;;;;1733247;28;20200;-69
2022/09/28 01:45:13;;;;;;;0.00;0.00;;;;;;;;;;1739474;28;20692;-69
2022/09/28 01:46:11;;;;;;;0.00;0.00;;;;;;;;;;1733578;28;20192;-69
2022/09/28 01:47:03;;;;;;;0.00;0.00;;;;;;;;;;1732220;28;20215;-69
2022/09/28 01:47:57;;;;;;;0.00;0.00;;;;;;;;;;1735683;28;20207;-69
2022/09/28 01:48:50;;;;;;;0.00;0.00;;;;;;;;;;1737122;28;20263;-69
2022/09/28 01:49:42;;;;;;;0.00;0.00;;;;;;;;;;1736810;28;20592;-69
2022/09/28 01:50:36;;;;;;;0.00;0.00;;;;;;;;;;1736771;28;20212;-69
2022/09/28 01:51:30;;;;;;;0.00;0.00;;;;;;;;;;1737029;28;20559;-68
2022/09/28 01:52:26;;;;;;;0.00;0.00;;;;;;;;;;1734492;28;20585;-68
2022/09/28 01:53:21;;;;;;;0.00;0.00;;;;;;;;;;1738400;28;20721;-68
2022/09/28 01:54:13;;;;;;;0.00;0.00;;;;;;;;;;1733352;28;20219;-68
2022/09/28 01:55:09;;;;;;;0.00;0.00;;;;;;;;;;1725887;28;20615;-68
2022/09/28 01:56:03;;;;;;;0.00;0.00;;;;;;;;;;1731801;28;20890;-69
2022/09/28 01:56:59;;;;;;;0.00;0.00;;;;;;;;;;1732249;28;20234;-69
2022/09/28 01:57:51;;;;;;;0.00;0.00;;;;;;;;;;1731596;28;20207;-69
2022/09/28 01:58:45;;;;;;;0.00;0.00;;;;;;;;;;1732160;28;20208;-69
2022/09/28 01:59:39;;;;;;;0.00;0.00;;;;;;;;;;1732511;28;20256;-69
2022/09/28 02:00:31;;;;;;;0.00;0.00;;;;;;;;;;1732826;28;20529;-69
2022/09/28 02:01:24;;;;;;;0.00;0.00;;;;;;;;;;1732845;28;20342;-69
2022/09/28 02:02:18;;;;;;;0.00;0.00;;;;;;;;;;1732611;28;20195;-69
2022/09/28 02:03:11;;;;;;;0.00;0.00;;;;;;;;;;1732524;28;20224;-69
2022/09/28 02:04:06;;;;;;;0.03;0.03;;;;;;;;;;1731527;28;20280;-69
2022/09/28 02:05:00;;;;;;;0.00;0.00;;;;;;;;;;1732340;28;20252;-69
2022/09/28 02:05:55;;;;;;;0.00;0.00;;;;;;;;;;1732012;28;20886;-69
2022/09/28 02:06:49;;;;;;;0.00;0.00;;;;;;;;;;1725483;28;20604;-69
2022/09/28 02:07:44;;;;;;;0.00;0.00;;;;;;;;;;1731263;28;20207;-69
2022/09/28 02:08:37;;;;;;;0.00;0.00;;;;;;;;;;1732115;28;20584;-69
2022/09/28 02:09:32;;;;;;;0.00;0.00;;;;;;;;;;1731804;28;20202;-69
2022/09/28 02:10:24;;;;;;;0.00;0.00;;;;;;;;;;1732160;28;20626;-69
2022/09/28 02:11:19;;;;;;;0.00;0.00;;;;;;;;;;1732317;28;20861;-68
2022/09/28 02:12:13;;;;;;;0.00;0.00;;;;;;;;;;1731666;28;20720;-68
2022/09/28 02:13:08;;;;;;;0.00;0.00;;;;;;;;;;1729512;28;20226;-68
2022/09/28 02:14:02;;;;;;;0.00;0.00;;;;;;;;;;1731448;28;20655;-68
2022/09/28 02:14:57;;;;;;;0.00;0.00;;;;;;;;;;1732202;28;20207;-68
2022/09/28 02:15:50;;;;;;;0.00;0.00;;;;;;;;;;1731967;28;20537;-68
2022/09/28 02:16:43;;;;;;;0.00;0.00;;;;;;;;;;1732274;28;20725;-68
2022/09/28 02:17:34;;;;;;;0.00;0.00;;;;;;;;;;1731858;28;20544;-68
2022/09/28 02:18:26;;;;;;;0.00;0.00;;;;;;;;;;1732190;28;20199;-68
2022/09/28 02:19:18;;;;;;;0.00;0.00;;;;;;;;;;1731423;28;20277;-68
2022/09/28 02:20:10;;;;;;;0.00;0.00;;;;;;;;;;1732577;28;20219;-68
2022/09/28 02:21:07;;;;;;;0.00;0.00;;;;;;;;;;1731746;28;20199;-69
2022/09/28 02:22:01;;;;;;;0.00;0.00;;;;;;;;;;1732266;28;20521;-69
2022/09/28 02:22:54;;;;;;;0.00;0.00;;;;;;;;;;1731966;28;20604;-69
2022/09/28 02:23:48;;;;;;;0.00;0.00;;;;;;;;;;1731982;28;20241;-69
2022/09/28 02:24:41;;;;;;;0.00;0.00;;;;;;;;;;1732039;28;20240;-69
2022/09/28 02:25:34;;;;;;;0.00;0.00;;;;;;;;;;1732230;28;20678;-69
2022/09/28 02:26:29;;;;;;;0.00;0.00;;;;;;;;;;1732119;28;20195;-69
2022/09/28 02:27:26;;;;;;;0.00;0.00;;;;;;;;;;1732348;28;20238;-69
2022/09/28 02:28:18;;;;;;;0.00;0.00;;;;;;;;;;1732945;28;20261;-69
2022/09/28 02:29:10;;;;;;;0.00;0.00;;;;;;;;;;1732339;28;20300;-69
2022/09/28 02:30:05;;;;;;;0.00;0.00;;;;;;;;;;1732643;28;20203;-69
2022/09/28 02:30:56;;;;;;;0.00;0.00;;;;;;;;;;1732091;28;20231;-69
2022/09/28 02:31:48;;;;;;;0.00;0.00;;;;;;;;;;1732169;28;20238;-69
2022/09/28 02:32:41;;;;;;;0.00;0.00;;;;;;;;;;1731519;28;20341;-69
2022/09/28 02:33:35;;;;;;;0.00;0.00;;;;;;;;;;1732254;28;20202;-69
2022/09/28 02:34:26;;;;;;;0.00;0.00;;;;;;;;;;1731642;28;20295;-69
2022/09/28 02:35:19;;;;;;;0.00;0.00;;;;;;;;;;1731750;28;20211;-69
2022/09/28 02:36:10;;;;;;;0.00;0.00;;;;;;;;;;1731631;28;20244;-68
2022/09/28 02:37:02;;;;;;;0.00;0.00;;;;;;;;;;1733352;28;20291;-68
2022/09/28 02:37:54;;;;;;;0.00;0.00;;;;;;;;;;1737612;28;20360;-68
2022/09/28 02:38:46;;;;;;;0.00;0.00;;;;;;;;;;1737764;28;20207;-68
2022/09/28 02:39:37;;;;;;;0.00;0.00;;;;;;;;;;1739259;28;20327;-68
2022/09/28 02:40:31;;;;;;;0.00;0.00;;;;;;;;;;1738311;28;20203;-68
2022/09/28 02:41:26;;;;;;;0.00;0.00;;;;;;;;;;1739268;28;20256;-68
2022/09/28 02:42:20;;;;;;;0.00;0.00;;;;;;;;;;1738358;28;20211;-68
2022/09/28 02:43:16;;;;;;;0.00;0.00;;;;;;;;;;1739134;28;20875;-68
2022/09/28 02:44:12;;;;;;;0.00;0.00;;;;;;;;;;1737450;28;20205;-68
2022/09/28 02:45:10;;;;;;;0.00;0.00;;;;;;;;;;1739173;28;20267;-68
2022/09/28 02:46:09;;;;;;;0.00;0.00;;;;;;;;;;1737187;28;20605;-68
2022/09/28 02:47:04;;;;;;;0.00;0.00;;;;;;;;;;1733800;28;20730;-68
2022/09/28 02:47:59;;;;;;;0.00;0.00;;;;;;;;;;1738551;28;20214;-68
2022/09/28 02:48:54;;;;;;;0.00;0.00;;;;;;;;;;1738345;28;20595;-68
2022/09/28 02:49:50;;;;;;;0.00;0.00;;;;;;;;;;1736901;28;20269;-68
2022/09/28 02:50:44;;;;;;;0.00;0.00;;;;;;;;;;1737819;28;20215;-68
2022/09/28 02:51:39;;;;;;;0.00;0.00;;;;;;;;;;1738685;28;20678;-68
2022/09/28 02:52:36;;;;;;;0.00;0.00;;;;;;;;;;1737662;28;20233;-68
2022/09/28 02:53:41;;;;;;;0.00;0.00;;;;;;;;;;1732162;28;20263;-68
2022/09/28 02:54:38;;;;;;;0.00;0.00;;;;;;;;;;1738834;28;20405;-68
2022/09/28 02:55:36;;;;;;;0.00;0.00;;;;;;;;;;1737813;28;20217;-68
2022/09/28 02:56:37;;;;;;;0.00;0.00;;;;;;;;;;1736536;28;20263;-69
2022/09/28 02:57:33;;;;;;;0.00;0.00;;;;;;;;;;1736795;28;20202;-69
2022/09/28 02:58:32;;;;;;;0.00;0.00;;;;;;;;;;1738964;28;20554;-69
2022/09/28 02:59:33;;;;;;;0.00;0.00;;;;;;;;;;1736918;28;20199;-69
2022/09/28 03:00:24;;;;;;;0.00;0.00;;;;;;;;;;1738860;28;20245;-68
2022/09/28 03:01:20;;;;;;;0.00;0.00;;;;;;;;;;1739577;28;20201;-69
2022/09/28 03:02:14;;;;;;;0.00;0.00;;;;;;;;;;1737732;28;20298;-69
2022/09/28 03:03:10;;;;;;;0.00;0.00;;;;;;;;;;1737091;28;20206;-69
2022/09/28 03:04:06;;;;;;;0.00;0.00;;;;;;;;;;1736784;28;20220;-68
2022/09/28 03:05:04;;;;;;;0.00;0.00;;;;;;;;;;1739012;28;20608;-68
2022/09/28 03:05:59;;;;;;;0.00;0.00;;;;;;;;;;1737369;28;20195;-69
2022/09/28 03:06:54;;;;;;;0.00;0.00;;;;;;;;;;1738968;28;20230;-68
2022/09/28 03:07:47;;;;;;;0.00;0.00;;;;;;;;;;1737944;28;20259;-69
2022/09/28 03:08:41;;;;;;;0.00;0.00;;;;;;;;;;1737843;28;20526;-69
2022/09/28 03:09:36;;;;;;;0.00;0.00;;;;;;;;;;1738435;28;21510;-69
2022/09/28 03:10:30;;;;;;;0.00;0.00;;;;;;;;;;1737770;28;20674;-69
2022/09/28 03:11:24;;;;;;;0.00;0.00;;;;;;;;;;1738927;28;20727;-68
2022/09/28 03:12:18;;;;;;;0.00;0.00;;;;;;;;;;1737420;28;20209;-68
2022/09/28 03:13:10;;;;;;;0.00;0.00;;;;;;;;;;1738910;28;20263;-68
2022/09/28 03:14:03;;;;;;;0.00;0.00;;;;;;;;;;1735294;28;20819;-68
2022/09/28 03:15:09;;;;;;;0.00;0.00;;;;;;;;;;1737841;28;20210;-67
2022/09/28 03:16:08;;;;;;;0.00;0.00;;;;;;;;;;1736730;28;20202;-69
2022/09/28 03:16:59;;;;;;;0.00;0.00;;;;;;;;;;1737734;28;20522;-69
2022/09/28 03:17:51;;;;;;;0.00;0.00;;;;;;;;;;1738598;28;20202;-68
2022/09/28 03:18:42;;;;;;;0.00;0.00;;;;;;;;;;1737839;28;20675;-69
2022/09/28 03:19:35;;;;;;;0.00;0.00;;;;;;;;;;1739864;28;20230;-69
2022/09/28 03:20:27;;;;;;;0.00;0.00;;;;;;;;;;1738998;28;20249;-69
2022/09/28 03:21:19;;;;;;;0.00;0.00;;;;;;;;;;1740292;28;20328;-68
2022/09/28 03:22:10;;;;;;;0.00;0.00;;;;;;;;;;1738900;28;20578;-68
2022/09/28 03:23:02;;;;;;;0.00;0.00;;;;;;;;;;1740036;28;20283;-68
2022/09/28 03:23:54;;;;;;;0.00;0.00;;;;;;;;;;1738617;28;20350;-68
2022/09/28 03:24:46;;;;;;;0.00;0.00;;;;;;;;;;1740163;28;20210;-68
2022/09/28 03:25:37;;;;;;;0.00;0.00;;;;;;;;;;1738572;28;20401;-68
2022/09/28 03:26:29;;;;;;;0.00;0.00;;;;;;;;;;1740251;28;20269;-69
2022/09/28 03:27:20;;;;;;;0.00;0.00;;;;;;;;;;1738746;28;20218;-69
2022/09/28 03:28:12;;;;;;;0.00;0.00;;;;;;;;;;1740256;28;20276;-69
2022/09/28 03:29:05;;;;;;;0.00;0.00;;;;;;;;;;1738314;28;20218;-69
2022/09/28 03:29:57;;;;;;;0.00;0.00;;;;;;;;;;1740003;28;20279;-69
2022/09/28 03:30:48;;;;;;;0.00;0.00;;;;;;;;;;1739106;28;20637;-69
2022/09/28 03:31:40;;;;;;;0.00;0.00;;;;;;;;;;1740216;28;20207;-69
2022/09/28 03:32:31;;;;;;;0.00;0.00;;;;;;;;;;1738802;28;20280;-69
2022/09/28 03:33:23;;;;;;;0.00;0.00;;;;;;;;;;1740014;28;20199;-69
2022/09/28 03:34:14;;;;;;;0.00;0.00;;;;;;;;;;1738389;28;20646;-69
2022/09/28 03:35:08;;;;;;;0.00;0.00;;;;;;;;;;1740321;28;20217;-69
2022/09/28 03:35:59;;;;;;;0.00;0.00;;;;;;;;;;1738772;28;21033;-68
2022/09/28 03:36:51;;;;;;;0.00;0.00;;;;;;;;;;1739853;28;20209;-68
2022/09/28 03:37:42;;;;;;;0.00;0.00;;;;;;;;;;1733919;28;20264;-68
2022/09/28 03:38:33;;;;;;;0.00;0.00;;;;;;;;;;1740293;28;20191;-68
2022/09/28 03:39:24;;;;;;;0.00;0.00;;;;;;;;;;1733884;28;20990;-68
2022/09/28 03:40:16;;;;;;;0.00;0.00;;;;;;;;;;1739703;28;20210;-68
2022/09/28 03:41:08;;;;;;;0.00;0.00;;;;;;;;;;1735126;28;20713;-69
2022/09/28 03:42:00;;;;;;;0.00;0.00;;;;;;;;;;1739083;28;20199;-69
2022/09/28 03:42:52;;;;;;;0.00;0.00;;;;;;;;;;1735855;28;20220;-69
2022/09/28 03:43:44;;;;;;;0.00;0.00;;;;;;;;;;1738102;28;20525;-69
2022/09/28 03:44:37;;;;;;;0.00;0.00;;;;;;;;;;1736417;28;20207;-68
2022/09/28 03:45:29;;;;;;;0.00;0.00;;;;;;;;;;1737519;28;20532;-68
2022/09/28 03:46:20;;;;;;;0.00;0.00;;;;;;;;;;1736375;28;20206;-68
2022/09/28 03:47:12;;;;;;;0.00;0.00;;;;;;;;;;1733003;28;20275;-68
2022/09/28 03:48:03;;;;;;;0.00;0.00;;;;;;;;;;1737363;28;20245;-67
2022/09/28 03:48:57;;;;;;;0.00;0.00;;;;;;;;;;1736663;28;20581;-68
2022/09/28 03:49:48;;;;;;;0.00;0.00;;;;;;;;;;1732775;28;20592;-68
2022/09/28 03:50:40;;;;;;;0.00;0.00;;;;;;;;;;1732549;28;20309;-67
2022/09/28 03:51:31;;;;;;;0.00;0.00;;;;;;;;;;1733780;28;20256;-68
2022/09/28 03:52:23;;;;;;;0.00;0.00;;;;;;;;;;1733447;28;20204;-68
2022/09/28 03:53:14;;;;;;;0.00;0.00;;;;;;;;;;1733938;28;20265;-69
2022/09/28 03:54:06;;;;;;;0.00;0.00;;;;;;;;;;1733289;28;20262;-69
2022/09/28 03:54:57;;;;;;;0.00;0.00;;;;;;;;;;1733769;28;20207;-68
2022/09/28 03:55:52;;;;;;;0.00;0.00;;;;;;;;;;1732724;28;20289;-68
2022/09/28 03:56:43;;;;;;;0.00;0.00;;;;;;;;;;1733097;28;20598;-69
2022/09/28 03:57:35;;;;;;;0.00;0.00;;;;;;;;;;1732775;28;20203;-69
2022/09/28 03:58:27;;;;;;;0.00;0.00;;;;;;;;;;1732955;28;20734;-69
2022/09/28 03:59:19;;;;;;;0.00;0.00;;;;;;;;;;1732433;28;20203;-69
2022/09/28 04:00:13;;;;;;;0.00;0.00;;;;;;;;;;1733290;28;20250;-69
2022/09/28 04:01:05;;;;;;;0.00;0.00;;;;;;;;;;1732614;28;20708;-69
2022/09/28 04:01:57;;;;;;;0.00;0.00;;;;;;;;;;1732709;28;20261;-68
2022/09/28 04:02:49;;;;;;;0.00;0.00;;;;;;;;;;1732569;28;20649;-68
2022/09/28 04:03:40;;;;;;;0.00;0.00;;;;;;;;;;1732734;28;20218;-69
2022/09/28 04:04:32;;;;;;;0.00;0.00;;;;;;;;;;1732512;28;20295;-69
2022/09/28 04:05:23;;;;;;;0.00;0.00;;;;;;;;;;1733116;28;20187;-69
2022/09/28 04:06:15;;;;;;;0.00;0.00;;;;;;;;;;1732809;28;20234;-69
2022/09/28 04:07:06;;;;;;;0.00;0.00;;;;;;;;;;1732424;28;20203;-68
2022/09/28 04:07:58;;;;;;;0.00;0.00;;;;;;;;;;1733658;28;20261;-68
2022/09/28 04:08:49;;;;;;;0.00;0.00;;;;;;;;;;1733107;28;20211;-69
2022/09/28 04:09:41;;;;;;;0.00;0.00;;;;;;;;;;1733349;28;20204;-68
2022/09/28 04:10:32;;;;;;;0.00;0.00;;;;;;;;;;1733423;28;20688;-68
2022/09/28 04:11:24;;;;;;;0.00;0.00;;;;;;;;;;1730510;28;20506;-68
2022/09/28 04:12:15;;;;;;;0.00;0.00;;;;;;;;;;1732397;28;20340;-69
2022/09/28 04:13:07;;;;;;;0.00;0.00;;;;;;;;;;1732906;28;20212;-69
2022/09/28 04:13:58;;;;;;;0.00;0.00;;;;;;;;;;1732616;28;20331;-69
2022/09/28 04:14:50;;;;;;;0.00;0.00;;;;;;;;;;1732903;28;20687;-68
2022/09/28 04:15:43;;;;;;;0.00;0.00;;;;;;;;;;1733658;28;20533;-68
2022/09/28 04:16:35;;;;;;;0.00;0.00;;;;;;;;;;1733787;28;20209;-69
2022/09/28 04:17:26;;;;;;;0.00;0.00;;;;;;;;;;1732851;28;20714;-68
2022/09/28 04:18:18;;;;;;;0.00;0.00;;;;;;;;;;1733578;28;20588;-68
2022/09/28 04:19:09;;;;;;;0.00;0.00;;;;;;;;;;1732785;28;20215;-68
2022/09/28 04:20:03;;;;;;;0.00;0.00;;;;;;;;;;1739240;28;20708;-69
2022/09/28 04:21:02;;;;;;;0.00;0.00;;;;;;;;;;1733564;28;20621;-69
2022/09/28 04:21:54;;;;;;;0.00;0.00;;;;;;;;;;1739948;28;20536;-68
2022/09/28 04:22:45;;;;;;;0.00;0.00;;;;;;;;;;1734089;28;20208;-69
2022/09/28 04:23:38;;;;;;;0.00;0.00;;;;;;;;;;1739783;28;20199;-69
2022/09/28 04:24:29;;;;;;;0.00;0.00;;;;;;;;;;1735393;28;20584;-69
2022/09/28 04:25:21;;;;;;;0.00;0.00;;;;;;;;;;1739627;28;20207;-69
2022/09/28 04:26:15;;;;;;;0.00;0.00;;;;;;;;;;1735915;28;20208;-69
2022/09/28 04:29:26;;;;;;;0.00;0.00;;;;;;;;;;1731810;28;20214;-69
2022/09/28 04:30:18;;;;;;;0.00;0.00;;;;;;;;;;1733132;28;20204;-69
2022/09/28 04:31:12;;;;;;;0.00;0.00;;;;;;;;;;1732635;28;20196;-68
2022/09/28 04:32:04;;;;;;;0.00;0.00;;;;;;;;;;1732466;28;20294;-68
2022/09/28 04:32:56;;;;;;;0.00;0.00;;;;;;;;;;1732912;28;20203;-68
2022/09/28 04:33:47;;;;;;;0.00;0.00;;;;;;;;;;1732012;28;20219;-68
2022/09/28 04:34:39;;;;;;;0.00;0.00;;;;;;;;;;1732609;28;20226;-68
2022/09/28 04:35:30;;;;;;;0.00;0.00;;;;;;;;;;1733280;28;20211;-68
2022/09/28 04:36:23;;;;;;;0.00;0.00;;;;;;;;;;1733416;28;20199;-68
2022/09/28 04:37:14;;;;;;;0.00;0.00;;;;;;;;;;1734697;28;20238;-68
2022/09/28 04:38:06;;;;;;;0.00;0.00;;;;;;;;;;1740161;28;20297;-68
2022/09/28 04:38:58;;;;;;;0.00;0.00;;;;;;;;;;1738988;28;20551;-68
2022/09/28 04:39:50;;;;;;;0.00;0.00;;;;;;;;;;1739856;28;20597;-68
2022/09/28 04:40:41;;;;;;;0.00;0.00;;;;;;;;;;1739376;28;20211;-68
2022/09/28 04:41:34;;;;;;;0.00;0.00;;;;;;;;;;1740409;28;20206;-69
2022/09/28 04:42:25;;;;;;;0.00;0.00;;;;;;;;;;1738669;28;20255;-69
2022/09/28 04:43:17;;;;;;;0.00;0.00;;;;;;;;;;1740060;28;20195;-69
2022/09/28 04:44:08;;;;;;;0.00;0.00;;;;;;;;;;1737983;28;20292;-69
2022/09/28 04:45:01;;;;;;;0.00;0.00;;;;;;;;;;1739554;28;20421;-69
2022/09/28 04:45:58;;;;;;;0.00;0.00;;;;;;;;;;1738126;28;20203;-68
2022/09/28 04:46:51;;;;;;;0.00;0.00;;;;;;;;;;1737574;28;20187;-68
2022/09/28 04:47:42;;;;;;;0.00;0.00;;;;;;;;;;1739146;28;20284;-68
2022/09/28 04:48:34;;;;;;;0.00;0.00;;;;;;;;;;1740432;28;20268;-68
2022/09/28 04:49:25;;;;;;;0.00;0.00;;;;;;;;;;1739000;28;20842;-68
2022/09/28 04:50:17;;;;;;;0.00;0.00;;;;;;;;;;1740178;28;20270;-68
2022/09/28 04:51:08;;;;;;;0.00;0.00;;;;;;;;;;1739374;28;20214;-68
2022/09/28 04:52:00;;;;;;;0.00;0.00;;;;;;;;;;1739167;28;20209;-68
2022/09/28 04:52:51;;;;;;;0.00;0.00;;;;;;;;;;1739511;28;20207;-68
2022/09/28 04:53:43;;;;;;;0.00;0.00;;;;;;;;;;1738575;28;20261;-68
2022/09/28 04:54:34;;;;;;;0.00;0.00;;;;;;;;;;1739394;28;20203;-68
2022/09/28 04:55:30;;;;;;;0.00;0.00;;;;;;;;;;1738489;28;20629;-68
2022/09/28 04:56:21;;;;;;;0.00;0.00;;;;;;;;;;1739464;28;20222;-68
2022/09/28 04:57:13;;;;;;;0.00;0.00;;;;;;;;;;1737358;28;20261;-68
2022/09/28 04:58:04;;;;;;;0.00;0.00;;;;;;;;;;1736992;28;20202;-68
2022/09/28 04:58:56;;;;;;;0.10;0.10;;;;;;;;;;1737449;28;20203;-68
2022/09/28 04:59:47;;;;;;;0.00;0.00;;;;;;;;;;1739470;28;20210;-68
2022/09/28 05:00:39;;;;;;;0.00;0.00;;;;;;;;;;1737623;28;20298;-68
2022/09/28 05:01:31;;;;;;;0.00;0.00;;;;;;;;;;1739442;28;20207;-68
2022/09/28 05:02:24;;;;;;;0.00;0.00;;;;;;;;;;1738093;28;20234;-68
2022/09/28 05:03:15;;;;;;;0.00;0.00;;;;;;;;;;1739371;28;20290;-68
2022/09/28 05:04:07;;;;;;;0.00;0.00;;;;;;;;;;1738005;28;20222;-68
2022/09/28 05:04:58;;;;;;;0.00;0.00;;;;;;;;;;1739099;28;20271;-68
2022/09/28 05:05:50;;;;;;;0.00;0.00;;;;;;;;;;1738451;28;20628;-69
2022/09/28 05:06:41;;;;;;;0.00;0.00;;;;;;;;;;1739061;28;20207;-69
2022/09/28 05:07:33;;;;;;;0.00;0.00;;;;;;;;;;1738629;28;20272;-69
2022/09/28 05:08:25;;;;;;;0.00;0.00;;;;;;;;;;1740181;28;20658;-69
2022/09/28 05:09:17;;;;;;;0.00;0.00;;;;;;;;;;1738208;28;20227;-69
2022/09/28 05:10:08;;;;;;;0.00;0.00;;;;;;;;;;1740688;28;20244;-68
2022/09/28 05:10:59;;;;;;;0.00;0.00;;;;;;;;;;1738665;28;20556;-69
2022/09/28 05:11:52;;;;;;;0.00;0.00;;;;;;;;;;1739967;28;20211;-69
2022/09/28 05:12:43;;;;;;;0.00;0.00;;;;;;;;;;1738725;28;20206;-69
2022/09/28 05:13:40;;;;;;;0.00;0.00;;;;;;;;;;1740021;28;20282;-69
2022/09/28 05:14:31;;;;;;;0.00;0.00;;;;;;;;;;1738143;28;20619;-69
2022/09/28 05:15:23;;;;;;;0.00;0.00;;;;;;;;;;1738966;28;20194;-69
2022/09/28 05:16:15;;;;;;;0.00;0.00;;;;;;;;;;1739257;28;20255;-69
2022/09/28 05:17:07;;;;;;;0.00;0.00;;;;;;;;;;1737864;28;20203;-69
2022/09/28 05:17:59;;;;;;;0.00;0.00;;;;;;;;;;1739446;28;20594;-69
2022/09/28 05:18:54;;;;;;;0.00;0.00;;;;;;;;;;1738295;28;20264;-69
2022/09/28 05:19:45;;;;;;;0.00;0.00;;;;;;;;;;1739742;28;20260;-69
2022/09/28 05:20:40;;;;;;;0.00;0.00;;;;;;;;;;1739192;28;20252;-69
2022/09/28 05:21:31;;;;;;;0.00;0.00;;;;;;;;;;1739985;28;20640;-69